Cameron, West Virginia
Current Conditions -  °F | °C
As of 6:53 PM on Wednesday 28 Jan 2015 (Local Time) from KHLG Reporting Station
Clear Clear  
Wind Chill: 22°   Ceiling: Unl
Heat Index: 22°   Visibility: 10mi
Dew Point: 10°   Wind: 0mph
Humidity: 60%   Direction: NA
Pressure: 30.3"   Gusts: NA
Location:  39.83°N, 80.57°W
Report Text: KHLG 282353Z 00000KT 10SM CLR M06/M12 A3030 RMK AO2 SLP285 T10561122 11039 21067 53000
Loading
Personal Weather Stations






























Interactive Weather Map New forecast layout! Learn more

10-Day Weather Forecast

Advertisements
Track Severe Weather on mobile